Terminal Aerodrome Forecast
Issued by NWS

Home | Current Version | Previous Version | Text Only | Print | Product List | Glossary On
Versions: 1 2 3 4 5 6 7 8 9 10 11 12
000
FTUS45 KABQ 181722
TAFLVS
TAF
KLVS 181722Z 1818/1918 VRB05KT P6SM SCT100
     FM182000 16010KT P6SM BKN100
     FM190400 12007KT P6SM SCT110
     FM191730 19010G16KT P6SM SCT090=

USA.gov is the U.S. government's official web portal to all federal, state and local government web resources and services.